PWSweather.com
Personal Weather Stations
Station Observations
WISCHPK61
Green Bay Schmitt Park, Green Bay, WI 54311

Green Bay Schmitt ParkGreen Bay, WI 54311

Lat: 44.514277, Lon: -87.935067

Elevation: 735

Station Type: Acu Rite Pro Weather Center model 02032C

http://greenbayweathercam.com

High Low Average
Temperature 87.8°F31.0°C 64.2°F17.9°C 74.8°F23.8°C
Dew Point 87.5°F30.8°C 63.9°F17.7°C 74.5°F23.6°C
Winds 3.5 mph 5.6 kmh Calm Calm Calm SWCalm SW
Wind Gusts 4.6 mph7.4 kmh -- --
Humidity 99% 99% 99%
Pressure 29.37 in994.6 mb 29.25 in990.5 mb -
Precipitation 0.00 in0.0 mm - -
Hour Temp Dew Point Humidity Winds Wind Gusts Pressure Precip Precip Rate Daily Precip Total
12:00 AM 70.3°F21.3°C 70.0°F21.1°C 99% Calm Calm -- 29.25 in990.5 mb - 0.00 in0.0 mm 0.00 in0.0 mm
01:00 AM 69.0°F20.6°C 68.7°F20.4°C 99% Calm Calm -- 29.26 in990.9 mb - 0.00 in0.0 mm 0.00 in0.0 mm
02:00 AM 67.8°F19.9°C 67.5°F19.7°C 99% Calm Calm -- 29.25 in990.5 mb - 0.00 in0.0 mm 0.00 in0.0 mm
03:00 AM 66.4°F19.1°C 66.1°F18.9°C 99% Calm Calm -- 29.25 in990.5 mb - 0.00 in0.0 mm 0.00 in0.0 mm
04:00 AM 65.2°F18.4°C 64.9°F18.3°C 99% Calm Calm -- 29.25 in990.5 mb - 0.00 in0.0 mm 0.00 in0.0 mm
05:00 AM 64.6°F18.1°C 64.3°F17.9°C 99% Calm Calm -- 29.25 in990.5 mb - 0.00 in0.0 mm 0.00 in0.0 mm
06:00 AM 64.2°F17.9°C 63.9°F17.7°C 99% Calm Calm -- 29.27 in991.2 mb - 0.00 in0.0 mm 0.00 in0.0 mm
07:00 AM 66.7°F19.3°C 66.4°F19.1°C 99% Calm Calm -- 29.28 in991.5 mb - 0.00 in0.0 mm 0.00 in0.0 mm
08:00 AM 70.7°F21.5°C 70.4°F21.3°C 99% Calm Calm -- 29.28 in991.5 mb - 0.00 in0.0 mm 0.00 in0.0 mm
09:00 AM 75.9°F24.4°C 75.6°F24.2°C 99% Calm Calm -- 29.29 in991.9 mb - 0.00 in0.0 mm 0.00 in0.0 mm
10:00 AM 80.4°F26.9°C 80.1°F26.7°C 99% Calm Calm -- 29.30 in992.2 mb - 0.00 in0.0 mm 0.00 in0.0 mm
11:00 AM 84.2°F29.0°C 83.9°F28.8°C 99% Calm Calm -- 29.30 in992.2 mb - 0.00 in0.0 mm 0.00 in0.0 mm
12:00 PM 85.3°F29.6°C 85.0°F29.4°C 99% 3.5 mph W5.6 kmh W 4.6 mph7.4 kmh 29.31 in992.6 mb - 0.00 in0.0 mm 0.00 in0.0 mm
01:00 PM 87.8°F31.0°C 87.5°F30.8°C 99% 2.3 mph N3.7 kmh N 2.3 mph3.7 kmh 29.30 in992.2 mb - 0.00 in0.0 mm 0.00 in0.0 mm
02:00 PM 83.1°F28.4°C 82.8°F28.2°C 99% Calm Calm -- 29.31 in992.6 mb - 0.00 in0.0 mm 0.00 in0.0 mm
03:00 PM 82.8°F28.2°C 82.5°F28.1°C 99% Calm Calm -- 29.31 in992.6 mb - 0.00 in0.0 mm 0.00 in0.0 mm
04:00 PM 82.2°F27.9°C 81.9°F27.7°C 99% Calm Calm -- 29.30 in992.2 mb - 0.00 in0.0 mm 0.00 in0.0 mm
05:00 PM 83.3°F28.5°C 83.0°F28.3°C 99% Calm Calm -- 29.30 in992.2 mb - 0.00 in0.0 mm 0.00 in0.0 mm
06:00 PM 81.0°F27.2°C 80.7°F27.1°C 99% Calm Calm -- 29.31 in992.6 mb - 0.00 in0.0 mm 0.00 in0.0 mm
07:00 PM 77.8°F25.4°C 77.5°F25.3°C 99% Calm Calm -- 29.31 in992.6 mb - 0.00 in0.0 mm 0.00 in0.0 mm
08:00 PM 74.7°F23.7°C 74.4°F23.6°C 99% Calm Calm -- 29.32 in992.9 mb - 0.00 in0.0 mm 0.00 in0.0 mm
09:00 PM 72.1°F22.3°C 71.8°F22.1°C 99% Calm Calm -- 29.34 in993.6 mb - 0.00 in0.0 mm 0.00 in0.0 mm
10:00 PM 70.5°F21.4°C 70.2°F21.2°C 99% Calm Calm -- 29.36 in994.2 mb - 0.00 in0.0 mm 0.00 in0.0 mm
11:00 PM 69.3°F20.7°C 69.0°F20.6°C 99% Calm Calm -- 29.37 in994.6 mb - 0.00 in0.0 mm 0.00 in0.0 mm